Time;durP1;ratioP1;P1;durP2;ratioP2;P2;SDS_P1;SDS_P2;PMS_P1;PMS_P2;Temp;Humidity;BMP_temperature;BMP_pressure;BME280_temperature;BME280_humidity;BME280_pressure;Samples;Min_cycle;Max_cycle;Signal;HPM_P1;HPM_P2
2022/11/10 00:02:15;;;;;;;10.02;6.80;;;;;;;10.68;100.00;98707.06;5099897;27;20032;-63
2022/11/10 00:04:41;;;;;;;10.45;7.22;;;;;;;10.66;100.00;98714.19;5080849;28;20024;-59
2022/11/10 00:07:06;;;;;;;10.13;7.05;;;;;;;10.71;100.00;98716.34;5104118;28;20035;-62
2022/11/10 00:09:32;;;;;;;10.35;6.95;;;;;;;10.71;100.00;98737.97;5076508;28;20035;-61
2022/11/10 00:11:57;;;;;;;9.88;7.15;;;;;;;10.72;100.00;98734.41;5110260;27;20035;-62
2022/11/10 00:17:09;;;;;;;9.45;7.55;;;;;;;10.73;100.00;98751.66;5099802;27;20884;-61
2022/11/10 00:19:34;;;;;;;10.93;7.97;;;;;;;10.71;100.00;98750.16;5080979;28;20058;-61
2022/11/10 00:22:00;;;;;;;11.27;7.97;;;;;;;10.77;100.00;98755.63;5079690;28;20016;-58
2022/11/10 00:24:27;;;;;;;11.82;8.05;;;;;;;10.83;100.00;98746.41;5077455;28;20650;-61
2022/11/10 00:26:53;;;;;;;9.93;7.43;;;;;;;10.83;100.00;98743.81;5098542;28;20490;-61
2022/11/10 00:29:19;;;;;;;10.70;7.60;;;;;;;10.83;100.00;98732.59;5095922;27;20028;-62
2022/11/10 00:31:44;;;;;;;10.82;7.50;;;;;;;10.80;100.00;98730.28;5098386;27;20043;-59
2022/11/10 00:34:12;;;;;;;10.93;7.57;;;;;;;10.81;100.00;98727.53;5094891;27;20653;-62
2022/11/10 00:36:37;;;;;;;11.43;8.30;;;;;;;10.91;100.00;98733.50;5092511;28;20069;-60
2022/11/10 00:39:03;;;;;;;10.57;7.75;;;;;;;10.99;100.00;98724.16;5081618;28;20876;-62
2022/11/10 00:41:28;;;;;;;10.18;8.40;;;;;;;11.01;100.00;98722.25;5093409;28;20028;-62
2022/11/10 00:43:54;;;;;;;11.13;8.05;;;;;;;10.87;100.00;98706.16;5093316;28;20027;-61
2022/11/10 00:46:19;;;;;;;10.73;8.18;;;;;;;11.03;100.00;98730.72;5111474;27;20023;-60
2022/11/10 00:48:45;;;;;;;9.57;7.97;;;;;;;10.99;100.00;98721.56;5100509;28;20039;-61
2022/11/10 00:51:21;;;;;;;11.23;7.95;;;;;;;11.00;100.00;98731.00;5083210;28;20032;-60
2022/11/10 00:53:47;;;;;;;10.70;7.75;;;;;;;10.98;100.00;98733.75;5096689;28;20614;-60
2022/11/10 00:56:12;;;;;;;10.77;7.53;;;;;;;11.06;100.00;98731.25;5093277;28;20035;-61
2022/11/10 00:58:38;;;;;;;9.77;7.72;;;;;;;11.02;100.00;98723.88;5100097;28;20039;-61
2022/11/10 01:01:04;;;;;;;10.85;8.15;;;;;;;11.01;100.00;98725.66;5098342;28;20084;-61
2022/11/10 01:03:30;;;;;;;10.77;8.10;;;;;;;11.03;100.00;98721.13;5095371;28;20054;-62
2022/11/10 01:05:55;;;;;;;10.20;7.68;;;;;;;11.04;100.00;98716.75;5097437;28;20039;-60
2022/11/10 01:08:21;;;;;;;9.93;8.02;;;;;;;11.16;100.00;98720.78;5112397;27;20053;-61
2022/11/10 01:10:47;;;;;;;12.32;8.27;;;;;;;11.18;100.00;98718.06;5099999;28;20130;-61
2022/11/10 01:13:12;;;;;;;11.18;9.02;;;;;;;11.03;100.00;98696.91;5098284;28;20027;-64
2022/11/10 01:15:41;;;;;;;12.20;8.45;;;;;;;11.18;100.00;98716.25;5094747;28;20107;-61
2022/11/10 01:18:07;;;;;;;10.90;8.18;;;;;;;11.24;100.00;98725.25;5094575;28;20031;-60
2022/11/10 01:20:33;;;;;;;11.80;8.32;;;;;;;11.20;100.00;98727.34;5095198;28;20042;-61
2022/11/10 01:22:59;;;;;;;10.13;7.43;;;;;;;11.23;100.00;98728.84;5079635;28;20034;-61
2022/11/10 01:25:24;;;;;;;10.60;8.38;;;;;;;11.21;100.00;98721.19;5096351;28;20043;-60
2022/11/10 01:27:50;;;;;;;11.05;7.55;;;;;;;11.27;100.00;98730.19;5089737;28;20028;-60
2022/11/10 01:30:16;;;;;;;10.82;7.50;;;;;;;11.22;100.00;98746.22;5099283;28;20027;-60
2022/11/10 01:32:42;;;;;;;10.30;7.95;;;;;;;11.16;100.00;98739.81;5097336;28;20482;-61
2022/11/10 01:35:08;;;;;;;11.13;8.18;;;;;;;11.26;100.00;98755.41;5082709;28;20031;-62
2022/11/10 01:37:33;;;;;;;12.15;8.40;;;;;;;11.16;100.00;98747.63;5113574;27;20032;-61
2022/11/10 01:39:59;;;;;;;12.18;8.55;;;;;;;11.11;100.00;98762.03;5099420;28;20035;-60
2022/11/10 01:42:40;;;;;;;11.60;8.55;;;;;;;11.10;100.00;98769.03;5072830;28;20059;-60
2022/11/10 01:45:21;;;;;;;12.80;8.88;;;;;;;11.22;100.00;98763.63;5132936;27;20039;-61
2022/11/10 01:47:51;;;;;;;11.45;8.52;;;;;;;11.01;100.00;98750.88;5100312;28;20046;-60
2022/11/10 01:50:16;;;;;;;;;;;;;;;11.22;100.00;98774.84;5099157;28;20044;-60
2022/11/10 01:52:47;;;;;;;10.45;8.25;;;;;;;11.21;100.00;98775.00;5095904;28;19923;-61
2022/11/10 01:55:12;;;;;;;10.35;8.15;;;;;;;11.15;100.00;98768.59;5108448;28;20028;-61
2022/11/10 01:57:39;;;;;;;13.00;9.48;;;;;;;11.04;100.00;98750.56;5075725;28;20676;-61
2022/11/10 02:00:05;;;;;;;13.35;8.93;;;;;;;11.18;100.00;98764.91;5109719;28;20024;-61
2022/11/10 02:02:35;;;;;;;11.77;9.05;;;;;;;11.23;100.00;98766.09;5096801;28;20043;-60
2022/11/10 02:05:03;;;;;;;12.40;8.40;;;;;;;11.26;100.00;98768.41;5099046;28;20034;-60
2022/11/10 02:07:28;;;;;;;11.55;8.50;;;;;;;11.26;100.00;98771.03;5088879;28;20163;-61
2022/11/10 02:09:54;;;;;;;11.45;8.23;;;;;;;11.31;100.00;98778.38;5099324;28;20035;-61
2022/11/10 02:12:35;;;;;;;11.30;8.30;;;;;;;11.10;100.00;98748.22;5103454;28;20136;-60
2022/11/10 02:15:02;;;;;;;10.95;8.95;;;;;;;11.30;100.00;98768.94;5083118;28;20050;-59
2022/11/10 02:17:28;;;;;;;11.65;8.48;;;;;;;11.08;100.00;98733.69;5097868;28;20709;-60
2022/11/10 02:19:58;;;;;;;10.20;8.52;;;;;;;11.21;100.00;98768.03;5102123;28;20099;-60
2022/11/10 02:22:23;;;;;;;;;;;;;;;11.16;100.00;98772.84;5086135;28;20031;-61
2022/11/10 02:24:48;;;;;;;11.83;9.13;;;;;;;11.10;100.00;98789.03;5095986;28;19965;-61
2022/11/10 02:27:13;;;;;;;10.93;8.32;;;;;;;11.13;100.00;98773.97;5092800;28;20373;-62
2022/11/10 02:29:39;;;;;;;11.43;9.05;;;;;;;11.19;100.00;98787.34;5104368;28;20092;-61
2022/11/10 02:32:04;;;;;;;12.05;9.25;;;;;;;11.23;100.00;98792.13;5086249;28;20023;-60
2022/11/10 02:34:30;;;;;;;12.85;9.07;;;;;;;11.16;100.00;98799.69;5098379;28;20114;-60
2022/11/10 02:36:55;;;;;;;11.90;9.52;;;;;;;11.11;100.00;98799.28;5103746;28;20035;-60
2022/11/10 02:39:20;;;;;;;13.07;9.90;;;;;;;11.13;100.00;98806.97;5100532;28;20031;-60
2022/11/10 02:41:46;;;;;;;14.18;9.77;;;;;;;11.14;100.00;98798.19;5104464;28;20027;-60
2022/11/10 02:44:11;;;;;;;12.48;9.75;;;;;;;11.22;100.00;98800.88;5113630;27;20043;-60
2022/11/10 02:46:36;;;;;;;12.18;9.23;;;;;;;11.25;100.00;98799.78;5101786;28;20027;-61
2022/11/10 02:49:02;;;;;;;12.30;9.13;;;;;;;10.99;100.00;98764.03;5092111;28;20037;-60
2022/11/10 02:51:28;;;;;;;12.80;9.50;;;;;;;11.15;100.00;98803.25;5084334;28;20500;-60
2022/11/10 02:53:53;;;;;;;12.52;9.68;;;;;;;11.10;100.00;98804.66;5111528;27;20038;-60
2022/11/10 02:56:19;;;;;;;13.32;9.73;;;;;;;11.11;100.00;98794.09;5102746;28;20031;-60
2022/11/10 02:58:44;;;;;;;14.25;9.90;;;;;;;11.13;100.00;98799.16;5085653;28;20080;-60
2022/11/10 03:01:09;;;;;;;12.25;9.18;;;;;;;11.01;100.00;98763.88;5115464;27;20609;-61
2022/11/10 03:03:35;;;;;;;12.77;9.60;;;;;;;11.18;100.00;98786.53;5083910;28;20069;-60
2022/11/10 03:06:00;;;;;;;13.25;10.27;;;;;;;11.18;100.00;98790.91;5102064;28;20492;-60
2022/11/10 03:08:26;;;;;;;12.27;9.82;;;;;;;11.20;100.00;98795.00;5097351;28;20825;-59
2022/11/10 03:10:53;;;;;;;14.05;10.02;;;;;;;11.21;100.00;98785.41;5099517;28;20764;-60
2022/11/10 03:13:18;;;;;;;15.02;9.75;;;;;;;11.32;100.00;98793.06;5112421;27;20220;-60
2022/11/10 03:15:46;;;;;;;13.00;10.10;;;;;;;11.29;100.00;98788.13;5104086;28;20114;-60
2022/11/10 03:18:11;;;;;;;14.18;10.65;;;;;;;11.03;100.00;98765.38;5085346;28;20055;-60
2022/11/10 03:20:37;;;;;;;13.95;9.80;;;;;;;11.22;100.00;98795.69;5114978;27;20078;-60
2022/11/10 03:23:03;;;;;;;13.73;9.98;;;;;;;11.26;100.00;98802.25;5096024;28;20027;-60
2022/11/10 03:25:29;;;;;;;11.82;9.45;;;;;;;11.11;100.00;98773.25;5079630;28;20019;-60
2022/11/10 03:27:54;;;;;;;12.50;9.05;;;;;;;11.26;100.00;98804.03;5102143;28;20545;-60
2022/11/10 03:30:20;;;;;;;12.60;9.70;;;;;;;11.27;100.00;98796.06;5098335;28;20028;-60
2022/11/10 03:32:45;;;;;;;12.68;9.10;;;;;;;11.27;100.00;98788.25;5097989;28;20538;-59
2022/11/10 03:35:11;;;;;;;13.07;10.13;;;;;;;11.16;100.00;98798.88;5098454;28;20042;-60
2022/11/10 03:37:36;;;;;;;14.27;10.70;;;;;;;11.18;100.00;98812.56;5084798;28;20025;-60
2022/11/10 03:40:02;;;;;;;16.50;10.95;;;;;;;11.12;100.00;98811.34;5102839;28;20039;-60
2022/11/10 03:42:27;;;;;;;13.07;10.77;;;;;;;11.16;100.00;98824.91;5101490;27;20877;-60
2022/11/10 03:44:52;;;;;;;15.70;11.85;;;;;;;11.12;100.00;98828.75;5102028;28;20031;-60
2022/11/10 03:47:18;;;;;;;13.38;10.10;;;;;;;11.07;100.00;98833.56;5104001;27;20030;-60
2022/11/10 03:49:44;;;;;;;13.65;9.88;;;;;;;11.09;100.00;98829.03;5099369;28;20430;-60
2022/11/10 03:52:09;;;;;;;14.65;10.73;;;;;;;11.06;100.00;98822.34;5096185;27;20493;-60
2022/11/10 03:54:34;;;;;;;12.98;10.07;;;;;;;11.07;100.00;98825.75;5091599;28;20478;-63
2022/11/10 03:57:00;;;;;;;12.68;9.57;;;;;;;11.12;100.00;98837.38;5077076;28;20019;-62
2022/11/10 03:59:25;;;;;;;14.60;9.85;;;;;;;11.13;100.00;98827.78;5102170;28;20114;-61
2022/11/10 04:01:51;;;;;;;13.43;10.35;;;;;;;11.19;100.00;98836.78;5098510;28;20126;-61
2022/11/10 04:09:55;;;;;;;13.77;10.18;;;;;;;11.24;100.00;98847.59;5023866;28;20649;-61
2022/11/10 04:17:50;;;;;;;14.13;10.05;;;;;;;11.22;100.00;98852.94;5091344;28;20698;-61
2022/11/10 04:20:15;;;;;;;14.23;9.85;;;;;;;11.16;100.00;98845.72;5099815;28;20031;-61
2022/11/10 04:25:25;;;;;;;13.43;10.32;;;;;;;11.25;100.00;98857.06;5099336;28;20074;-60
2022/11/10 04:27:50;;;;;;;15.57;11.57;;;;;;;11.22;100.00;98847.72;5100799;28;20604;-60
2022/11/10 04:30:16;;;;;;;13.73;9.93;;;;;;;11.23;100.00;98859.00;5097166;28;20038;-60
2022/11/10 04:32:41;;;;;;;14.57;10.88;;;;;;;11.25;100.00;98857.88;5100147;28;20027;-60
2022/11/10 04:35:07;;;;;;;14.98;10.80;;;;;;;11.18;100.00;98856.81;5095132;28;20413;-60
2022/11/10 04:37:32;;;;;;;13.90;10.18;;;;;;;11.19;100.00;98861.06;5100294;28;20055;-60
2022/11/10 04:39:58;;;;;;;18.60;10.50;;;;;;;11.20;100.00;98864.47;5074865;28;20043;-60
2022/11/10 04:42:23;;;;;;;15.13;10.63;;;;;;;11.20;100.00;98867.88;5100994;28;20104;-60
2022/11/10 04:44:48;;;;;;;16.77;10.10;;;;;;;11.25;100.00;98876.09;5097310;28;20050;-60
2022/11/10 04:47:14;;;;;;;12.88;9.90;;;;;;;11.20;100.00;98864.47;5097982;28;20074;-60
2022/11/10 04:49:39;;;;;;;13.00;10.63;;;;;;;11.25;100.00;98876.09;5096219;28;20432;-60
2022/11/10 04:52:04;;;;;;;14.45;10.80;;;;;;;11.19;100.00;98878.44;5109537;27;20024;-60
2022/11/10 04:54:30;;;;;;;13.60;10.35;;;;;;;10.99;100.00;98851.66;5097620;28;20149;-59
2022/11/10 04:56:55;;;;;;;13.75;10.50;;;;;;;11.18;100.00;98875.03;5110157;27;20024;-61
2022/11/10 04:59:21;;;;;;;13.02;10.45;;;;;;;11.23;100.00;98885.84;5101009;28;20397;-60
2022/11/10 05:01:46;;;;;;;14.68;10.85;;;;;;;11.12;100.00;98870.41;5082512;28;20716;-61
2022/11/10 05:04:11;;;;;;;13.57;10.23;;;;;;;11.30;100.00;98884.31;5099784;28;20035;-60
2022/11/10 05:06:37;;;;;;;13.10;10.63;;;;;;;11.23;100.00;98885.03;5102798;27;20095;-60
2022/11/10 05:09:02;;;;;;;14.98;10.00;;;;;;;11.19;100.00;98896.66;5099608;28;20035;-60
2022/11/10 05:11:28;;;;;;;13.40;10.50;;;;;;;11.22;100.00;98904.19;5083832;28;20027;-61
2022/11/10 05:13:53;;;;;;;13.85;9.90;;;;;;;11.21;100.00;98907.75;5095259;28;20515;-60
2022/11/10 05:16:18;;;;;;;12.77;9.38;;;;;;;10.80;100.00;98836.91;5098777;28;20028;-60
2022/11/10 05:18:44;;;;;;;12.52;8.93;;;;;;;11.20;100.00;98908.72;5099973;28;20141;-60
2022/11/10 05:21:09;;;;;;;13.55;10.07;;;;;;;11.15;100.00;98906.53;5100371;27;20028;-60
2022/11/10 05:23:38;;;;;;;12.90;9.13;;;;;;;11.18;100.00;98908.03;5102264;27;20126;-60
2022/11/10 05:26:11;;;;;;;14.02;10.00;;;;;;;11.16;100.00;98913.38;5101380;28;20110;-59
2022/11/10 05:28:38;;;;;;;14.70;9.57;;;;;;;11.16;100.00;98923.78;5096914;28;20030;-59
2022/11/10 05:31:04;;;;;;;13.70;10.05;;;;;;;11.12;100.00;98933.66;5080539;28;20027;-60
2022/11/10 05:33:29;;;;;;;13.57;9.50;;;;;;;11.14;100.00;98929.13;5099754;28;20125;-60
2022/11/10 05:35:55;;;;;;;14.02;10.18;;;;;;;10.87;100.00;98893.44;5098323;28;20038;-60
2022/11/10 05:38:20;;;;;;;14.38;10.20;;;;;;;10.86;100.00;98894.41;5100686;28;20023;-60
2022/11/10 05:40:46;;;;;;;12.15;8.75;;;;;;;10.82;100.00;98894.81;5096699;28;20051;-60
2022/11/10 05:43:11;;;;;;;12.75;9.50;;;;;;;10.83;100.00;98899.88;5098653;28;20027;-60
2022/11/10 05:45:36;;;;;;;14.05;10.73;;;;;;;11.09;100.00;98930.53;5090385;28;20234;-60
2022/11/10 05:48:02;;;;;;;11.77;9.35;;;;;;;11.14;100.00;98934.34;5100936;28;20042;-60
2022/11/10 05:50:28;;;;;;;13.57;9.85;;;;;;;11.18;100.00;98940.09;5107200;27;20027;-61
2022/11/10 05:52:54;;;;;;;14.27;10.25;;;;;;;10.99;100.00;98907.13;5096383;28;20760;-60
2022/11/10 05:55:22;;;;;;;12.10;9.73;;;;;;;11.22;100.00;98946.66;5090214;28;20375;-60
2022/11/10 05:57:50;;;;;;;15.65;10.85;;;;;;;11.26;100.00;98957.59;5099202;28;20027;-60
2022/11/10 06:00:17;;;;;;;14.77;10.48;;;;;;;11.26;100.00;98968.84;5096164;28;20061;-60
2022/11/10 06:02:43;;;;;;;14.32;10.40;;;;;;;11.21;100.00;98973.66;5089499;28;20469;-61
2022/11/10 06:05:09;;;;;;;12.25;8.88;;;;;;;11.22;100.00;98964.88;5093838;28;20027;-60
2022/11/10 06:07:36;;;;;;;11.38;8.55;;;;;;;11.27;100.00;98970.47;5081439;28;20028;-60
2022/11/10 06:10:02;;;;;;;12.10;8.70;;;;;;;11.22;100.00;98977.88;5096774;28;20032;-60
2022/11/10 06:12:29;;;;;;;12.35;7.85;;;;;;;11.20;100.00;98979.00;5097323;28;20024;-60
2022/11/10 06:14:57;;;;;;;10.52;8.02;;;;;;;11.22;100.00;98985.69;5097633;28;20081;-60
2022/11/10 06:17:24;;;;;;;10.88;8.48;;;;;;;11.15;100.00;98979.41;5091213;28;20028;-60
2022/11/10 06:19:49;;;;;;;10.73;7.32;;;;;;;11.23;100.00;98996.94;5098084;28;20118;-60
2022/11/10 06:22:15;;;;;;;10.65;8.15;;;;;;;11.17;100.00;98980.09;5097092;28;20106;-60
2022/11/10 06:24:40;;;;;;;10.30;7.93;;;;;;;11.20;100.00;98990.22;5098734;28;20039;-61
2022/11/10 06:27:06;;;;;;;11.68;8.13;;;;;;;11.32;100.00;98994.31;5094706;28;20032;-60
2022/11/10 06:29:32;;;;;;;11.02;8.05;;;;;;;11.30;100.00;99003.25;5094532;28;20027;-60
2022/11/10 06:31:57;;;;;;;10.45;7.65;;;;;;;11.23;100.00;99005.56;5107154;27;20040;-61
2022/11/10 06:34:23;;;;;;;10.77;7.53;;;;;;;11.18;100.00;99012.16;5094909;28;20027;-60
2022/11/10 06:36:48;;;;;;;9.02;6.43;;;;;;;11.20;100.00;99015.44;5079423;28;20752;-59
2022/11/10 06:39:14;;;;;;;10.10;7.15;;;;;;;11.16;100.00;99013.09;5095925;28;20028;-60
2022/11/10 06:41:39;;;;;;;10.38;7.22;;;;;;;11.12;100.00;99016.94;5098739;28;20024;-59
2022/11/10 06:44:05;;;;;;;10.05;7.53;;;;;;;11.03;100.00;99016.97;5098575;28;20036;-60
2022/11/10 06:46:31;;;;;;;10.75;7.10;;;;;;;11.02;100.00;99020.50;5099764;28;20723;-60
2022/11/10 06:48:56;;;;;;;9.00;6.93;;;;;;;11.06;100.00;99014.06;5097761;28;20036;-60
2022/11/10 06:51:21;;;;;;;10.98;7.75;;;;;;;11.11;100.00;99012.69;5099012;28;20027;-60
2022/11/10 06:53:47;;;;;;;10.00;7.30;;;;;;;10.94;100.00;98984.78;5099340;28;20043;-60
2022/11/10 06:56:12;;;;;;;10.73;6.70;;;;;;;11.08;100.00;99020.78;5098948;28;20782;-60
2022/11/10 06:58:38;;;;;;;10.00;6.75;;;;;;;11.19;100.00;99032.84;5099047;28;20383;-60
2022/11/10 07:01:03;;;;;;;8.98;6.68;;;;;;;11.19;100.00;99035.44;5101539;28;20063;-60
2022/11/10 07:03:29;;;;;;;10.73;6.88;;;;;;;11.21;100.00;99046.53;5105445;27;20032;-60
2022/11/10 07:05:54;;;;;;;9.35;6.60;;;;;;;11.12;100.00;99029.97;5102683;28;20103;-60
2022/11/10 07:08:20;;;;;;;8.65;5.47;;;;;;;11.18;100.00;99048.59;5098780;28;20028;-60
2022/11/10 07:10:50;;;;;;;7.80;5.82;;;;;;;11.20;100.00;99059.69;5108027;27;20032;-60
2022/11/10 07:13:17;;;;;;;9.85;6.93;;;;;;;10.96;100.00;99022.69;5100250;28;20055;-60
2022/11/10 07:15:42;;;;;;;9.25;6.70;;;;;;;11.14;100.00;99061.88;5098395;28;20034;-61
2022/11/10 07:18:08;;;;;;;8.27;6.13;;;;;;;11.12;100.00;99076.00;5084945;28;20019;-60
2022/11/10 07:20:34;;;;;;;8.35;6.20;;;;;;;10.83;100.00;99034.34;5113565;27;20080;-60
2022/11/10 07:23:01;;;;;;;9.13;6.50;;;;;;;11.09;100.00;99084.88;5100494;28;20375;-60
2022/11/10 07:25:27;;;;;;;9.82;6.63;;;;;;;11.01;100.00;99084.75;5093189;28;20016;-59
2022/11/10 07:28:00;;;;;;;8.10;6.00;;;;;;;11.01;100.00;99095.16;5103144;28;20046;-60
2022/11/10 07:30:26;;;;;;;9.20;6.47;;;;;;;11.04;100.00;99101.84;5099473;28;20058;-60
2022/11/10 07:33:05;;;;;;;9.30;5.80;;;;;;;11.08;100.00;99108.44;5105132;27;20028;-59
2022/11/10 07:35:31;;;;;;;8.27;5.95;;;;;;;11.02;100.00;99109.78;5096170;28;20588;-57
2022/11/10 07:37:57;;;;;;;9.77;6.03;;;;;;;11.01;100.00;99108.16;5112095;27;20031;-60
2022/11/10 07:40:23;;;;;;;9.73;5.78;;;;;;;11.00;100.00;99114.31;5107404;27;20032;-60
2022/11/10 07:42:49;;;;;;;8.52;5.82;;;;;;;10.98;100.00;99111.03;5096750;28;20093;-60
2022/11/10 07:45:14;;;;;;;8.10;5.70;;;;;;;10.95;100.00;99104.31;5100832;28;20061;-60
2022/11/10 07:47:40;;;;;;;8.75;5.93;;;;;;;11.06;100.00;99113.78;5100107;28;20490;-61
2022/11/10 07:50:06;;;;;;;8.52;5.38;;;;;;;11.04;100.00;99122.69;5101737;28;20076;-63
2022/11/10 07:52:31;;;;;;;9.38;5.88;;;;;;;11.04;100.00;99120.88;5101076;28;20039;-60
2022/11/10 07:54:56;;;;;;;9.57;5.95;;;;;;;11.00;100.00;99119.50;5112174;27;20030;-60
2022/11/10 07:57:22;;;;;;;9.60;5.68;;;;;;;11.06;100.00;99131.16;5101469;28;20057;-60
2022/11/10 07:59:47;;;;;;;8.65;5.50;;;;;;;11.06;100.00;99132.00;5098715;28;20027;-60
2022/11/10 08:02:13;;;;;;;8.95;5.68;;;;;;;10.99;100.00;99136.09;5108250;27;20036;-60
2022/11/10 08:04:38;;;;;;;8.70;5.43;;;;;;;11.05;100.00;99135.56;5100072;28;20635;-60
2022/11/10 08:07:03;;;;;;;8.10;5.50;;;;;;;11.06;100.00;99126.81;5099266;28;20024;-60
2022/11/10 08:09:29;;;;;;;8.95;5.93;;;;;;;10.98;100.00;99131.84;5099091;28;20040;-60
2022/11/10 08:11:54;;;;;;;8.32;5.90;;;;;;;10.98;100.00;99138.84;5097598;28;20684;-60
2022/11/10 08:14:20;;;;;;;10.10;6.38;;;;;;;11.00;100.00;99132.53;5103073;28;20035;-61
2022/11/10 08:16:45;;;;;;;9.52;6.00;;;;;;;11.00;100.00;99139.53;5096307;28;20038;-60
2022/11/10 08:19:10;;;;;;;8.38;5.90;;;;;;;11.01;100.00;99138.56;5098935;28;20037;-60
2022/11/10 08:21:36;;;;;;;8.40;5.75;;;;;;;11.02;100.00;99133.22;5102189;27;20042;-60
2022/11/10 08:24:01;;;;;;;9.25;6.00;;;;;;;11.04;100.00;99143.50;5103818;27;20023;-60
2022/11/10 08:26:27;;;;;;;9.40;5.65;;;;;;;11.01;100.00;99142.00;5103236;27;20138;-60
2022/11/10 08:28:52;;;;;;;11.60;6.57;;;;;;;10.96;100.00;99146.78;5096243;28;20028;-60
2022/11/10 08:31:17;;;;;;;9.65;6.80;;;;;;;11.02;100.00;99138.41;5099526;28;20748;-60
2022/11/10 08:33:43;;;;;;;11.00;7.13;;;;;;;10.82;100.00;99106.34;5097279;28;20031;-61
2022/11/10 08:36:09;;;;;;;9.68;6.35;;;;;;;10.99;100.00;99141.31;5098904;27;20074;-60
2022/11/10 08:38:34;;;;;;;10.68;6.95;;;;;;;11.03;100.00;99155.69;5105044;27;20034;-61
2022/11/10 08:40:59;;;;;;;8.02;6.10;;;;;;;11.14;100.00;99152.97;5110132;27;20019;-61
2022/11/10 08:43:27;;;;;;;9.35;6.22;;;;;;;11.11;100.00;99158.44;5100754;28;20031;-61
2022/11/10 08:45:54;;;;;;;11.95;6.95;;;;;;;11.08;100.00;99169.13;5094890;28;20119;-60
2022/11/10 08:48:20;;;;;;;11.30;7.72;;;;;;;11.09;100.00;99162.13;5084416;28;20035;-61
2022/11/10 08:50:46;;;;;;;9.18;5.70;;;;;;;11.00;100.00;99170.75;5101082;27;20046;-61
2022/11/10 08:53:14;;;;;;;8.95;6.10;;;;;;;11.03;100.00;99171.31;5091452;28;20027;-60
2022/11/10 08:55:40;;;;;;;9.68;5.93;;;;;;;10.93;100.00;99153.06;5101321;28;20092;-61
2022/11/10 08:58:07;;;;;;;9.57;5.80;;;;;;;10.96;100.00;99162.38;5099879;28;20561;-61
2022/11/10 09:00:33;;;;;;;8.82;5.10;;;;;;;11.14;100.00;99179.00;5105276;27;20101;-61
2022/11/10 09:03:10;;;;;;;8.52;5.85;;;;;;;11.18;100.00;99189.94;5099180;28;20738;-60
2022/11/10 09:05:36;;;;;;;8.77;5.13;;;;;;;11.01;100.00;99162.81;5097745;28;20072;-61
2022/11/10 09:08:02;;;;;;;9.07;5.57;;;;;;;11.15;100.00;99192.81;5098826;28;20023;-61
2022/11/10 09:10:28;;;;;;;8.68;5.80;;;;;;;11.05;100.00;99160.75;5100150;28;20046;-60
2022/11/10 09:12:53;;;;;;;7.95;5.38;;;;;;;11.03;100.00;99162.69;5080350;28;20059;-61
2022/11/10 09:15:19;;;;;;;8.02;5.63;;;;;;;11.23;100.00;99206.00;5083568;28;20504;-61
2022/11/10 09:17:44;;;;;;;8.82;5.75;;;;;;;11.15;100.00;99198.03;5102658;27;20040;-61
2022/11/10 09:20:11;;;;;;;7.90;5.68;;;;;;;11.34;100.00;99213.69;5111851;27;20047;-61
2022/11/10 09:22:37;;;;;;;8.20;5.85;;;;;;;11.34;100.00;99220.69;5094323;28;20038;-61
2022/11/10 09:25:03;;;;;;;8.43;6.18;;;;;;;11.32;100.00;99217.38;5092834;28;20036;-61
2022/11/10 09:27:28;;;;;;;8.52;5.70;;;;;;;11.37;100.00;99217.78;5100597;28;20028;-60
2022/11/10 09:29:54;;;;;;;8.48;5.63;;;;;;;11.44;100.00;99221.50;5101265;27;20042;-61
2022/11/10 09:32:19;;;;;;;9.88;6.43;;;;;;;11.51;100.00;99219.19;5097534;28;20070;-59
2022/11/10 09:34:44;;;;;;;9.73;5.90;;;;;;;11.49;100.00;99215.91;5083728;28;20031;-61
2022/11/10 09:37:10;;;;;;;10.25;5.65;;;;;;;11.57;100.00;99218.63;5098884;28;20085;-61
2022/11/10 09:39:35;;;;;;;10.95;6.07;;;;;;;11.46;100.00;99226.56;5102380;28;20492;-60
2022/11/10 09:42:03;;;;;;;9.52;6.07;;;;;;;11.28;100.00;99202.97;5095886;28;20056;-61
2022/11/10 09:44:38;;;;;;;8.65;5.57;;;;;;;11.30;100.00;99227.13;5110822;27;20075;-61
2022/11/10 09:47:12;;;;;;;7.85;5.15;;;;;;;11.45;100.00;99237.97;5097398;28;20028;-61
2022/11/10 09:49:51;;;;;;;8.73;5.55;;;;;;;11.34;100.00;99250.13;5091676;28;20106;-61
2022/11/10 09:52:17;;;;;;;8.55;5.60;;;;;;;11.16;100.00;99225.72;5095882;28;20046;-62
2022/11/10 09:55:04;;;;;;;9.50;6.00;;;;;;;11.13;100.00;99211.19;5099305;28;20024;-61
2022/11/10 09:57:29;;;;;;;13.02;6.35;;;;;;;11.38;100.00;99247.28;5084506;28;20409;-61
2022/11/10 09:59:55;;;;;;;7.90;5.68;;;;;;;11.39;100.00;99246.28;5078273;28;20030;-61
2022/11/10 10:02:30;;;;;;;8.57;5.57;;;;;;;11.52;100.00;99249.50;5105021;27;20028;-63
2022/11/10 10:05:07;;;;;;;7.78;5.25;;;;;;;11.58;100.00;99245.53;5097356;28;20096;-61
2022/11/10 10:07:44;;;;;;;7.40;4.63;;;;;;;11.74;100.00;99246.63;5098537;28;20028;-60
2022/11/10 10:10:51;;;;;;;7.28;4.65;;;;;;;11.60;100.00;99249.63;5093725;28;20079;-61
2022/11/10 10:13:45;;;;;;;9.68;5.22;;;;;;;11.46;100.00;99218.75;5043799;28;20532;-60
2022/11/10 10:16:25;;;;;;;9.15;4.60;;;;;;;11.62;100.00;99242.50;5057024;28;20028;-62
2022/11/10 10:19:16;;;;;;;7.80;4.75;;;;;;;11.63;100.00;99248.53;5087862;28;20036;-61
2022/11/10 10:21:44;;;;;;;7.68;5.00;;;;;;;11.78;100.00;99247.16;5099524;28;20035;-61
2022/11/10 10:24:15;;;;;;;6.32;4.00;;;;;;;11.84;100.00;99249.22;5095654;28;20901;-61
2022/11/10 10:26:44;;;;;;;7.18;4.97;;;;;;;11.85;100.00;99243.06;5109591;28;20027;-61
2022/11/10 10:29:15;;;;;;;7.32;5.50;;;;;;;11.82;100.00;99240.72;5087969;28;20143;-60
2022/11/10 10:31:42;;;;;;;8.43;5.45;;;;;;;11.84;100.00;99259.63;5095656;28;20028;-61
2022/11/10 10:34:14;;;;;;;7.93;5.30;;;;;;;11.89;100.00;99254.84;5101436;28;20037;-59
2022/11/10 10:36:39;;;;;;;8.13;5.40;;;;;;;11.91;100.00;99255.56;5106597;27;20494;-60
2022/11/10 10:39:26;;;;;;;7.60;5.10;;;;;;;11.84;100.00;99251.81;5101989;28;20027;-61
2022/11/10 10:41:51;;;;;;;7.47;5.00;;;;;;;11.95;100.00;99261.31;5113092;27;20019;-60
2022/11/10 10:44:18;;;;;;;8.52;5.05;;;;;;;11.98;100.00;99263.66;5102617;28;20028;-61
2022/11/10 10:46:49;;;;;;;7.53;4.65;;;;;;;11.78;100.00;99230.72;5100835;28;20043;-60
2022/11/10 10:49:17;;;;;;;7.10;4.38;;;;;;;11.99;100.00;99264.47;5102566;28;20104;-61
2022/11/10 10:51:43;;;;;;;6.47;4.20;;;;;;;11.80;100.00;99220.97;5103160;28;20118;-60
2022/11/10 10:54:25;;;;;;;6.80;4.38;;;;;;;12.11;100.00;99258.97;5103859;28;20023;-60
2022/11/10 10:57:00;;;;;;;6.90;4.05;;;;;;;12.17;100.00;99254.19;5086241;28;20025;-59
2022/11/10 10:59:26;;;;;;;6.88;3.90;;;;;;;12.05;100.00;99211.81;5101361;28;20468;-60
2022/11/10 11:01:53;;;;;;;6.38;3.88;;;;;;;12.41;100.00;99256.31;5104172;28;20137;-60
2022/11/10 11:04:30;;;;;;;5.65;3.20;;;;;;;12.43;100.00;99249.19;5085127;28;20043;-59
2022/11/10 11:07:01;;;;;;;5.68;3.03;;;;;;;12.49;100.00;99256.47;5098392;27;20023;-60
2022/11/10 11:09:29;;;;;;;6.25;3.20;;;;;;;12.58;100.00;99258.22;5099981;28;20031;-59
2022/11/10 11:12:00;;;;;;;5.72;2.80;;;;;;;12.63;100.00;99263.84;5107088;27;20046;-60
2022/11/10 11:14:28;;;;;;;5.38;2.83;;;;;;;12.76;100.00;99258.31;5099611;28;20685;-59
2022/11/10 11:16:56;;;;;;;5.00;2.83;;;;;;;12.62;100.00;99224.84;5086340;28;20035;-60
2022/11/10 11:19:23;;;;;;;5.70;3.05;;;;;;;12.87;100.00;99254.69;5083801;28;20035;-60
2022/11/10 11:22:17;;;;;;;7.05;2.92;;;;;;;12.97;100.00;99254.66;5101632;28;20020;-60
2022/11/10 11:24:50;;;;;;;6.35;3.28;;;;;;;12.97;100.00;99262.47;5095037;28;20035;-61
2022/11/10 11:27:48;;;;;;;5.00;2.90;;;;;;;12.94;100.00;99257.53;5105672;27;20477;-59
2022/11/10 11:30:24;;;;;;;4.70;2.45;;;;;;;13.01;100.00;99253.38;5102586;28;20771;-60
2022/11/10 11:33:12;;;;;;;4.82;2.50;;;;;;;13.10;100.00;99254.31;5112714;27;20031;-60
2022/11/10 11:35:57;;;;;;;5.22;2.88;;;;;;;13.16;100.00;99261.56;5095977;28;20431;-59
2022/11/10 11:38:33;;;;;;;5.72;3.20;;;;;;;13.01;100.00;99235.09;5071990;28;20059;-59